Berlin, New York
Current Conditions -  °F | °C
As of 4:52 AM on Friday 28 Nov 2014 (Local Time) from KAQW Reporting Station
Overcast Overcast  
Wind Chill: 21°   Ceiling: 2400
Heat Index: 26°   Visibility: 10mi
Dew Point: 24°   Wind: 5mph
Humidity: 92%   Direction: 260°W
Pressure: 30.02"   Gusts: NA
Location:  42.69°N, 73.37°W
Report Text: KAQW 280952Z AUTO 26004KT 10SM FEW019 BKN024 OVC050 M03/M04 A3002 RMK AO2 SNE0857B15E31 SLP175 P0000 T10331044 FZRANO $
Loading
Personal Weather Stations






























Interactive Weather Map New forecast layout! Learn more

10-Day Weather Forecast

Advertisements
Track Severe Weather on mobile